Time;durP1;ratioP1;P1;durP2;ratioP2;P2;SDS_P1;SDS_P2;PMS_P1;PMS_P2;Temp;Humidity;BMP_temperature;BMP_pressure;BME280_temperature;BME280_humidity;BME280_pressure;Samples;Min_cycle;Max_cycle;Signal;HPM_P1;HPM_P2
2021/06/25 00:01:44;;;;;;;5.50;3.72;;;15.90;99.90;;;;;;5049695;28;20036;-80
2021/06/25 00:04:10;;;;;;;4.15;3.75;;;15.90;99.90;;;;;;5036506;28;20481;-80
2021/06/25 00:06:36;;;;;;;4.03;3.63;;;16.00;99.90;;;;;;5036953;28;20493;-80
2021/06/25 00:09:02;;;;;;;5.57;3.80;;;16.10;99.90;;;;;;5039903;28;20492;-80
2021/06/25 00:11:28;;;;;;;5.32;3.55;;;16.10;99.90;;;;;;5036169;28;20022;-80
2021/06/25 00:13:55;;;;;;;4.32;3.92;;;16.00;99.90;;;;;;5050425;28;20017;-80
2021/06/25 00:16:21;;;;;;;4.85;3.92;;;16.10;99.90;;;;;;5053837;28;20497;-80
2021/06/25 00:18:46;;;;;;;4.85;4.32;;;16.10;99.90;;;;;;5044458;28;20323;-80
2021/06/25 00:21:12;;;;;;;5.35;4.50;;;16.00;99.90;;;;;;5050461;28;20021;-80
2021/06/25 00:23:38;;;;;;;6.05;3.92;;;15.90;99.90;;;;;;5038987;28;20374;-80
2021/06/25 00:26:04;;;;;;;5.05;4.32;;;15.80;99.90;;;;;;5050743;28;20017;-80
2021/06/25 00:28:30;;;;;;;12.32;4.20;;;15.80;99.90;;;;;;5052761;28;20082;-80
2021/06/25 00:30:56;;;;;;;5.10;4.60;;;15.80;99.90;;;;;;5055450;28;20013;-80
2021/06/25 00:33:22;;;;;;;8.93;4.88;;;15.80;99.90;;;;;;5055353;28;20056;-80
2021/06/25 00:35:47;;;;;;;6.00;4.43;;;15.80;99.90;;;;;;5051052;28;20382;-80
2021/06/25 00:38:14;;;;;;;4.82;4.32;;;15.80;99.90;;;;;;5035491;28;20029;-80
2021/06/25 00:40:40;;;;;;;8.18;5.75;;;15.70;99.90;;;;;;5035602;28;20040;-80
2021/06/25 00:43:06;;;;;;;6.38;4.00;;;15.70;99.90;;;;;;5048475;28;20121;-80
2021/06/25 00:45:32;;;;;;;6.47;4.60;;;15.60;99.90;;;;;;5054458;28;20028;-80
2021/06/25 00:47:58;;;;;;;5.28;4.78;;;15.70;99.90;;;;;;5051676;28;20477;-80
2021/06/25 00:50:30;;;;;;;7.43;4.97;;;15.70;99.90;;;;;;5035422;28;20021;-80
2021/06/25 00:52:58;;;;;;;7.45;4.20;;;15.80;99.90;;;;;;5034246;28;20447;-80
2021/06/25 00:55:26;;;;;;;4.78;4.35;;;15.80;99.90;;;;;;5050714;28;20033;-80
2021/06/25 00:57:52;;;;;;;10.02;6.28;;;15.80;99.90;;;;;;5038170;28;20102;-80
2021/06/25 01:00:18;;;;;;;6.85;4.50;;;15.80;99.90;;;;;;5047790;28;20397;-80
2021/06/25 01:02:44;;;;;;;6.28;4.53;;;15.70;99.90;;;;;;5035344;28;20034;-80
2021/06/25 01:05:11;;;;;;;5.32;4.80;;;15.70;99.90;;;;;;5048399;28;20021;-80
2021/06/25 01:07:37;;;;;;;6.55;5.13;;;15.70;99.90;;;;;;5054251;28;20029;-80
2021/06/25 01:10:08;;;;;;;6.38;5.10;;;15.80;99.90;;;;;;5054776;28;20069;-80
2021/06/25 01:12:34;;;;;;;7.07;5.13;;;15.80;99.90;;;;;;5054385;28;20021;-80
2021/06/25 01:15:00;;;;;;;5.38;4.88;;;15.80;99.90;;;;;;5054544;28;20087;-80
2021/06/25 01:17:35;;;;;;;6.60;5.30;;;15.80;99.90;;;;;;5054697;28;20496;-80
2021/06/25 01:20:06;;;;;;;5.20;4.68;;;15.80;99.90;;;;;;5050936;28;20037;-80
2021/06/25 01:22:35;;;;;;;5.80;4.78;;;15.80;99.90;;;;;;5033698;28;20035;-80
2021/06/25 01:25:06;;;;;;;8.80;5.40;;;15.70;99.90;;;;;;5046393;28;20028;-80
2021/06/25 01:27:31;;;;;;;;;;;15.80;99.90;;;;;;5054478;28;20029;-80
2021/06/25 01:29:58;;;;;;;8.00;5.40;;;15.70;99.90;;;;;;5053929;28;19912;-80
2021/06/25 01:32:24;;;;;;;5.88;4.80;;;15.80;99.90;;;;;;5048393;28;20496;-80
2021/06/25 01:34:51;;;;;;;6.82;5.70;;;15.80;99.90;;;;;;5034734;28;20113;-80
2021/06/25 01:37:17;;;;;;;6.00;5.40;;;15.70;99.90;;;;;;5051277;28;20041;-80
2021/06/25 01:39:44;;;;;;;6.88;5.60;;;15.60;99.90;;;;;;5037180;28;20087;-80
2021/06/25 01:42:10;;;;;;;5.63;5.13;;;15.60;99.90;;;;;;5034210;28;20017;-80
2021/06/25 01:44:37;;;;;;;5.70;5.20;;;15.50;99.90;;;;;;5034343;28;20461;-80
2021/06/25 01:47:03;;;;;;;5.40;4.82;;;15.60;99.90;;;;;;5034770;28;20032;-80
2021/06/25 01:49:31;;;;;;;6.03;5.43;;;15.60;99.90;;;;;;5049226;28;20064;-80
2021/06/25 01:51:57;;;;;;;5.63;5.13;;;15.50;99.90;;;;;;5053214;28;20146;-80
2021/06/25 01:54:23;;;;;;;10.23;5.47;;;15.50;99.90;;;;;;5048757;28;20109;-80
2021/06/25 01:57:41;;;;;;;6.50;5.57;;;15.50;99.90;;;;;;5033649;28;20389;-80
2021/06/25 02:00:08;;;;;;;6.75;5.82;;;15.50;99.90;;;;;;5034322;28;20171;-80
2021/06/25 02:02:35;;;;;;;8.02;6.43;;;15.40;99.90;;;;;;5040902;28;20032;-80
2021/06/25 02:05:00;;;;;;;6.95;5.85;;;15.40;99.90;;;;;;5045402;28;20488;-80
2021/06/25 02:07:26;;;;;;;5.93;5.28;;;15.50;99.90;;;;;;5053878;28;20025;-80
2021/06/25 02:09:52;;;;;;;7.18;5.10;;;15.50;99.90;;;;;;5051842;28;20025;-80
2021/06/25 02:12:18;;;;;;;7.68;6.13;;;15.50;99.90;;;;;;5038496;28;20021;-80
2021/06/25 02:14:44;;;;;;;6.43;5.80;;;15.40;99.90;;;;;;5052177;28;20036;-80
2021/06/25 02:17:10;;;;;;;6.93;6.18;;;15.20;99.90;;;;;;5053370;28;20032;-80
2021/06/25 02:19:35;;;;;;;9.48;6.20;;;15.30;99.90;;;;;;5053539;28;20130;-80
2021/06/25 02:22:02;;;;;;;6.30;5.68;;;15.50;99.90;;;;;;5050830;28;20504;-80
2021/06/25 02:24:28;;;;;;;6.15;5.55;;;15.50;99.90;;;;;;5038582;28;20017;-80
2021/06/25 02:26:54;;;;;;;6.05;5.45;;;15.40;99.90;;;;;;5053135;28;20071;-80
2021/06/25 02:29:20;;;;;;;6.05;4.70;;;15.40;99.90;;;;;;5053146;28;20057;-80
2021/06/25 02:31:46;;;;;;;8.45;6.50;;;15.40;99.90;;;;;;5053332;28;20034;-80
2021/06/25 02:34:12;;;;;;;6.57;5.53;;;15.30;99.90;;;;;;5036617;28;20066;-80
2021/06/25 02:36:38;;;;;;;8.02;6.25;;;15.40;99.90;;;;;;5046161;28;20037;-80
2021/06/25 02:39:04;;;;;;;8.10;6.13;;;15.50;99.90;;;;;;5032270;28;20112;-80
2021/06/25 02:41:30;;;;;;;8.68;7.20;;;15.50;99.90;;;;;;5046838;28;20036;-80
2021/06/25 02:43:56;;;;;;;7.25;5.85;;;15.50;99.90;;;;;;5052546;28;20032;-80
2021/06/25 02:46:21;;;;;;;6.38;5.78;;;15.50;99.90;;;;;;5049061;28;20512;-80
2021/06/25 02:48:47;;;;;;;7.35;5.50;;;15.50;99.90;;;;;;5033092;28;20026;-80
2021/06/25 02:51:13;;;;;;;6.88;5.28;;;15.50;99.90;;;;;;5033371;28;20037;-80
2021/06/25 02:53:39;;;;;;;5.97;5.35;;;15.50;99.90;;;;;;5046287;28;20025;-80
2021/06/25 02:56:04;;;;;;;5.40;4.90;;;15.50;99.90;;;;;;5052205;28;20086;-80
2021/06/25 02:58:31;;;;;;;6.43;5.78;;;15.50;99.90;;;;;;5052609;28;20026;-80
2021/06/25 03:00:56;;;;;;;6.15;5.55;;;15.60;99.90;;;;;;5052671;28;20044;-80
2021/06/25 03:03:23;;;;;;;7.72;5.80;;;15.50;99.90;;;;;;5045568;28;20033;-80
2021/06/25 03:05:50;;;;;;;8.90;6.53;;;15.50;99.90;;;;;;5033269;28;20509;-80
2021/06/25 03:08:16;;;;;;;6.78;6.18;;;15.60;99.90;;;;;;5048814;28;20532;-80
2021/06/25 03:10:43;;;;;;;6.63;5.57;;;15.60;99.90;;;;;;5039041;28;20025;-80
2021/06/25 03:13:09;;;;;;;8.30;6.10;;;15.60;99.90;;;;;;5052157;28;20111;-81
2021/06/25 03:15:35;;;;;;;5.53;4.95;;;15.60;99.90;;;;;;5039029;28;20105;-81
2021/06/25 03:18:01;;;;;;;6.18;5.53;;;15.60;99.90;;;;;;5048938;28;20025;-80
2021/06/25 03:20:27;;;;;;;5.85;5.35;;;15.60;99.90;;;;;;5031361;28;20057;-80
2021/06/25 03:22:53;;;;;;;5.78;5.28;;;15.50;99.90;;;;;;5039913;28;20109;-80
2021/06/25 03:25:19;;;;;;;6.50;5.78;;;15.30;99.90;;;;;;5052440;28;20033;-80
2021/06/25 03:27:44;;;;;;;6.18;5.57;;;15.30;99.90;;;;;;5052370;28;20025;-80
2021/06/25 03:30:11;;;;;;;6.68;5.97;;;15.30;99.90;;;;;;5049925;28;20100;-80
2021/06/25 03:32:37;;;;;;;6.95;6.25;;;15.30;99.90;;;;;;5032438;28;20026;-80
2021/06/25 03:35:04;;;;;;;8.48;5.90;;;15.30;99.90;;;;;;5032652;28;20033;-80
2021/06/25 03:37:30;;;;;;;7.38;5.05;;;15.30;99.90;;;;;;5049721;28;20082;-80
2021/06/25 03:39:56;;;;;;;7.85;5.60;;;15.30;99.90;;;;;;5036182;28;20037;-80
2021/06/25 03:42:22;;;;;;;12.73;7.20;;;15.40;99.90;;;;;;5035022;28;20032;-80
2021/06/25 03:44:48;;;;;;;6.18;5.18;;;15.30;99.90;;;;;;5045740;28;20037;-80
2021/06/25 03:47:14;;;;;;;6.78;6.13;;;15.40;99.90;;;;;;5031993;28;20025;-80
2021/06/25 03:49:39;;;;;;;7.20;5.57;;;15.50;99.90;;;;;;5032612;28;20031;-80
2021/06/25 03:52:05;;;;;;;9.13;5.85;;;15.40;99.90;;;;;;5031876;28;20092;-80
2021/06/25 03:54:31;;;;;;;8.55;5.53;;;15.30;99.90;;;;;;5032601;28;20033;-80
2021/06/25 03:56:57;;;;;;;7.07;5.35;;;15.20;99.90;;;;;;5039830;28;20021;-80
2021/06/25 03:59:23;;;;;;;8.77;6.13;;;15.30;99.90;;;;;;5051604;28;20059;-80
2021/06/25 04:01:49;;;;;;;6.80;6.13;;;15.20;99.90;;;;;;5051708;28;20500;-80
2021/06/25 04:04:14;;;;;;;7.78;6.82;;;15.20;99.90;;;;;;5045897;28;20533;-80
2021/06/25 04:06:40;;;;;;;6.60;6.05;;;15.20;99.90;;;;;;5046726;28;20014;-80
2021/06/25 04:09:06;;;;;;;7.65;5.75;;;15.20;99.90;;;;;;5040650;28;20113;-80
2021/06/25 04:11:32;;;;;;;8.70;6.22;;;15.30;99.90;;;;;;5039900;28;20066;-80
2021/06/25 04:13:58;;;;;;;8.68;6.90;;;15.40;99.90;;;;;;5031962;28;20033;-80
2021/06/25 04:16:24;;;;;;;7.97;5.72;;;15.30;99.90;;;;;;5034738;28;20388;-81
2021/06/25 04:18:50;;;;;;;7.25;6.55;;;15.40;99.90;;;;;;5051540;28;20047;-80
2021/06/25 04:21:16;;;;;;;6.93;5.43;;;15.40;99.90;;;;;;5051133;28;20485;-80
2021/06/25 04:23:41;;;;;;;6.78;5.28;;;15.50;99.90;;;;;;5038936;28;20026;-80
2021/06/25 04:26:12;;;;;;;6.90;6.20;;;15.50;99.90;;;;;;5048048;28;20473;-80
2021/06/25 04:28:37;;;;;;;8.48;5.90;;;15.50;99.90;;;;;;5032022;28;20030;-80
2021/06/25 04:31:03;;;;;;;8.57;6.10;;;15.40;99.90;;;;;;5039232;28;20116;-80
2021/06/25 04:33:29;;;;;;;6.82;6.22;;;15.40;99.90;;;;;;5051359;28;20040;-80
2021/06/25 04:35:55;;;;;;;11.38;5.97;;;15.50;99.90;;;;;;5040621;28;20036;-80
2021/06/25 04:38:22;;;;;;;6.50;5.93;;;15.50;99.90;;;;;;5051912;28;20060;-80
2021/06/25 04:40:47;;;;;;;6.88;6.22;;;15.60;99.90;;;;;;5051991;28;20029;-80
2021/06/25 04:43:15;;;;;;;7.03;5.88;;;15.50;99.90;;;;;;5040943;28;20040;-80
2021/06/25 04:45:42;;;;;;;10.60;5.82;;;15.50;99.90;;;;;;5031789;28;20083;-80
2021/06/25 04:48:13;;;;;;;10.10;6.13;;;15.50;99.90;;;;;;5047512;28;20048;-80
2021/06/25 04:50:39;;;;;;;7.38;6.43;;;15.60;99.90;;;;;;5055267;28;20025;-80
2021/06/25 04:53:06;;;;;;;8.85;6.10;;;15.60;99.90;;;;;;5055698;28;20029;-80
2021/06/25 04:55:40;;;;;;;8.52;6.35;;;15.60;99.90;;;;;;5039450;28;20052;-80
2021/06/25 04:58:08;;;;;;;7.95;5.57;;;15.60;99.90;;;;;;5035552;28;20033;-80
2021/06/25 05:00:33;;;;;;;6.38;5.38;;;15.50;99.90;;;;;;5035528;28;20025;-80
2021/06/25 05:02:59;;;;;;;6.43;5.82;;;15.60;99.90;;;;;;5050874;28;20055;-80
2021/06/25 05:05:25;;;;;;;6.78;5.90;;;15.50;99.90;;;;;;5054022;28;20029;-80
2021/06/25 05:07:51;;;;;;;6.38;5.80;;;15.50;99.90;;;;;;5055381;28;20100;-80
2021/06/25 05:10:19;;;;;;;7.13;5.78;;;15.50;99.90;;;;;;5042764;28;20025;-80
2021/06/25 05:12:48;;;;;;;9.93;6.32;;;15.60;99.90;;;;;;5034930;28;20493;-80
2021/06/25 05:15:19;;;;;;;6.85;6.25;;;15.60;99.90;;;;;;5034860;28;20021;-80
2021/06/25 05:17:48;;;;;;;8.07;6.45;;;15.60;99.90;;;;;;5034629;28;20063;-80
2021/06/25 05:20:14;;;;;;;9.70;6.20;;;15.60;99.90;;;;;;5036737;28;20077;-80
2021/06/25 05:22:40;;;;;;;6.93;6.22;;;15.70;99.90;;;;;;5035063;28;20079;-80
2021/06/25 05:25:06;;;;;;;8.15;5.70;;;15.80;99.90;;;;;;5049594;28;20033;-81
2021/06/25 05:27:32;;;;;;;7.15;5.45;;;15.80;99.90;;;;;;5035603;28;20021;-81
2021/06/25 05:29:58;;;;;;;6.82;6.13;;;15.90;99.90;;;;;;5035905;28;20022;-80
2021/06/25 05:32:24;;;;;;;7.22;6.22;;;16.00;99.90;;;;;;5034674;28;20029;-81
2021/06/25 05:34:50;;;;;;;6.93;6.15;;;16.00;99.90;;;;;;5047841;28;20079;-80
2021/06/25 05:37:16;;;;;;;7.50;6.78;;;16.00;99.90;;;;;;5049639;28;20082;-80
2021/06/25 05:39:42;;;;;;;6.32;5.70;;;16.00;99.90;;;;;;5046993;28;20017;-80
2021/06/25 05:42:08;;;;;;;7.45;6.15;;;16.00;99.90;;;;;;5054105;28;20033;-80
2021/06/25 05:44:35;;;;;;;6.55;5.93;;;16.00;99.90;;;;;;5035571;28;20025;-80
2021/06/25 05:47:02;;;;;;;8.00;6.90;;;16.00;99.90;;;;;;5034886;28;20032;-80
2021/06/25 05:49:27;;;;;;;6.38;5.88;;;16.00;99.90;;;;;;5034361;28;20436;-80
2021/06/25 05:51:53;;;;;;;11.25;6.32;;;16.00;99.90;;;;;;5035251;28;20036;-81
2021/06/25 05:54:19;;;;;;;7.03;6.28;;;16.10;99.90;;;;;;5034647;28;20393;-81
2021/06/25 05:56:45;;;;;;;7.50;6.63;;;16.10;99.90;;;;;;5050005;28;20040;-80
2021/06/25 05:59:10;;;;;;;10.68;6.55;;;16.20;99.90;;;;;;5053406;28;20021;-81
2021/06/25 06:01:36;;;;;;;8.60;6.28;;;16.30;99.90;;;;;;5054081;28;20040;-80
2021/06/25 06:04:02;;;;;;;6.50;5.82;;;16.30;99.90;;;;;;5054319;28;20022;-80
2021/06/25 06:06:28;;;;;;;6.35;5.75;;;16.30;99.90;;;;;;5053995;28;20025;-81
2021/06/25 06:08:53;;;;;;;9.07;6.50;;;16.20;99.90;;;;;;5052350;28;20053;-80
2021/06/25 06:11:19;;;;;;;7.60;6.93;;;16.40;99.90;;;;;;5052400;28;20144;-81
2021/06/25 06:13:45;;;;;;;8.38;5.80;;;16.50;99.90;;;;;;5044127;28;20076;-80
2021/06/25 06:16:11;;;;;;;7.40;6.32;;;16.60;99.90;;;;;;5032960;28;20406;-80
2021/06/25 06:18:43;;;;;;;7.07;5.95;;;16.60;99.90;;;;;;5043172;28;20053;-80
2021/06/25 06:21:09;;;;;;;8.23;5.97;;;16.60;99.90;;;;;;5046235;28;20111;-84
2021/06/25 06:32:02;;;;;;;6.43;5.72;;;16.90;99.90;;;;;;5043548;28;20040;-84
2021/06/25 06:34:33;;;;;;;6.25;5.65;;;17.00;99.90;;;;;;5036814;28;20017;-84
2021/06/25 06:36:59;;;;;;;6.25;5.70;;;17.10;99.90;;;;;;5050719;28;20017;-84
2021/06/25 06:39:25;;;;;;;6.97;6.28;;;17.20;99.90;;;;;;5046070;28;20033;-84
2021/06/25 06:41:51;;;;;;;9.30;5.93;;;17.40;99.90;;;;;;5072447;28;20028;-84
2021/06/25 06:44:17;;;;;;;6.28;5.68;;;17.50;99.90;;;;;;5072247;28;20020;-84
2021/06/25 06:46:43;;;;;;;6.30;5.75;;;17.50;99.90;;;;;;5073079;28;20028;-84
2021/06/25 06:49:08;;;;;;;8.32;5.88;;;17.60;99.90;;;;;;5073712;28;20052;-84
2021/06/25 06:51:34;;;;;;;7.55;6.00;;;17.60;99.90;;;;;;5061666;28;20055;-84
2021/06/25 06:54:01;;;;;;;6.38;5.88;;;17.70;99.90;;;;;;5053560;28;20039;-84
2021/06/25 06:56:27;;;;;;;6.63;5.90;;;17.70;99.90;;;;;;5053792;28;20111;-84
2021/06/25 06:58:54;;;;;;;6.93;6.32;;;17.70;99.90;;;;;;5052187;28;20017;-84
2021/06/25 07:01:22;;;;;;;6.38;5.82;;;17.80;99.90;;;;;;5053505;28;20053;-84
2021/06/25 07:03:48;;;;;;;6.40;5.88;;;17.90;99.90;;;;;;5053071;28;20041;-84
2021/06/25 07:06:15;;;;;;;6.50;5.90;;;17.90;99.90;;;;;;5053171;28;20032;-84
2021/06/25 07:08:41;;;;;;;6.45;5.85;;;18.10;99.90;;;;;;5053442;28;20017;-84
2021/06/25 07:11:07;;;;;;;6.95;6.28;;;18.30;99.90;;;;;;5042687;28;20017;-84
2021/06/25 07:13:33;;;;;;;7.45;6.10;;;18.40;99.90;;;;;;5045362;28;20146;-83
2021/06/25 07:15:59;;;;;;;8.00;6.53;;;18.40;99.90;;;;;;5045303;28;20024;-84
2021/06/25 07:18:25;;;;;;;7.07;6.32;;;18.60;99.90;;;;;;5044486;28;20029;-84
2021/06/25 07:20:51;;;;;;;7.28;5.50;;;18.70;99.90;;;;;;5046911;28;20037;-84
2021/06/25 07:23:17;;;;;;;9.15;6.13;;;18.70;99.90;;;;;;5045185;28;20078;-84
2021/06/25 07:25:43;;;;;;;7.13;5.80;;;18.80;99.90;;;;;;5048617;28;20029;-84
2021/06/25 07:28:09;;;;;;;5.88;5.30;;;18.50;99.90;;;;;;5046716;28;20013;-84
2021/06/25 07:30:36;;;;;;;8.27;6.28;;;18.60;99.90;;;;;;5041647;28;20485;-84
2021/06/25 07:33:02;;;;;;;7.32;6.20;;;18.80;99.90;;;;;;5044969;28;20035;-84
2021/06/25 07:35:28;;;;;;;7.40;5.63;;;18.70;99.90;;;;;;5046480;28;20443;-84
2021/06/25 07:37:53;;;;;;;7.13;5.70;;;18.70;99.90;;;;;;5047641;28;20067;-84
2021/06/25 07:40:20;;;;;;;6.35;5.68;;;18.80;99.90;;;;;;5048982;28;20028;-84
2021/06/25 07:42:48;;;;;;;7.90;5.45;;;18.70;99.90;;;;;;5049181;28;20029;-84
2021/06/25 07:45:14;;;;;;;6.15;5.60;;;18.80;99.90;;;;;;5039208;28;20061;-84
2021/06/25 07:47:42;;;;;;;12.38;6.07;;;18.70;99.90;;;;;;5041227;28;20477;-84
2021/06/25 07:50:11;;;;;;;7.18;6.28;;;18.50;99.90;;;;;;5045971;28;20026;-84
2021/06/25 07:52:38;;;;;;;8.10;6.93;;;18.30;99.90;;;;;;5042074;28;20030;-84
2021/06/25 07:55:05;;;;;;;7.25;5.68;;;18.50;99.90;;;;;;5040808;28;20033;-82
2021/06/25 07:57:31;;;;;;;8.98;6.53;;;18.80;99.90;;;;;;5044312;28;20025;-84
2021/06/25 07:59:56;;;;;;;7.75;6.00;;;18.90;99.90;;;;;;5043695;28;20067;-84
2021/06/25 08:02:22;;;;;;;6.97;6.30;;;19.00;99.90;;;;;;5046710;28;20061;-84
2021/06/25 08:04:48;;;;;;;7.03;5.50;;;18.80;99.90;;;;;;5036092;28;20028;-84
2021/06/25 08:07:15;;;;;;;9.45;6.15;;;18.80;99.90;;;;;;5038468;28;20481;-84
2021/06/25 08:09:41;;;;;;;6.50;5.32;;;18.70;99.90;;;;;;5040230;28;20021;-84
2021/06/25 08:12:09;;;;;;;5.95;5.30;;;19.00;99.90;;;;;;5048910;28;20242;-84
2021/06/25 08:14:35;;;;;;;6.20;5.40;;;19.30;99.90;;;;;;5046927;28;20090;-84
2021/06/25 08:17:01;;;;;;;7.03;5.95;;;19.20;99.90;;;;;;5048427;28;20463;-81
2021/06/25 08:19:27;;;;;;;11.82;6.40;;;19.40;99.90;;;;;;5044453;28;20239;-84
2021/06/25 08:21:53;;;;;;;8.35;4.95;;;20.00;99.90;;;;;;5032613;28;20044;-84
2021/06/25 08:24:19;;;;;;;9.52;5.93;;;20.60;99.90;;;;;;5035009;28;20105;-84
2021/06/25 08:26:44;;;;;;;6.35;5.40;;;20.80;99.90;;;;;;5043832;28;20025;-84
2021/06/25 08:29:10;;;;;;;5.95;5.35;;;20.90;99.90;;;;;;5052345;28;20021;-84
2021/06/25 08:31:36;;;;;;;7.38;5.18;;;21.10;99.90;;;;;;5050934;28;20020;-84
2021/06/25 08:34:02;;;;;;;6.45;5.30;;;21.20;99.90;;;;;;5046754;28;20048;-84
2021/06/25 08:36:28;;;;;;;6.32;5.10;;;21.50;99.90;;;;;;5051728;28;20044;-84
2021/06/25 08:38:54;;;;;;;5.55;5.05;;;20.70;99.90;;;;;;5053121;28;20025;-83
2021/06/25 08:41:20;;;;;;;5.13;4.72;;;20.60;99.90;;;;;;5050324;28;20035;-84
2021/06/25 08:43:46;;;;;;;5.68;5.07;;;21.00;99.90;;;;;;5049752;28;20033;-84
2021/06/25 08:46:12;;;;;;;6.10;4.55;;;21.30;99.90;;;;;;5040991;28;20396;-84
2021/06/25 08:48:39;;;;;;;5.45;4.32;;;21.60;99.90;;;;;;5048262;28;20029;-84
2021/06/25 08:51:07;;;;;;;4.80;3.97;;;22.10;99.90;;;;;;5048620;28;20104;-84
2021/06/25 08:53:33;;;;;;;4.65;4.25;;;22.60;99.90;;;;;;5050933;28;20029;-84
2021/06/25 08:55:59;;;;;;;3.85;3.47;;;22.60;99.90;;;;;;5052595;28;20032;-83
2021/06/25 08:58:25;;;;;;;4.72;4.32;;;22.40;99.90;;;;;;5038980;28;20513;-83
2021/06/25 09:00:52;;;;;;;4.82;4.35;;;22.60;99.90;;;;;;5035612;28;20030;-83
2021/06/25 09:03:23;;;;;;;6.30;4.15;;;22.30;99.90;;;;;;5035461;28;20544;-83
2021/06/25 09:05:49;;;;;;;5.63;4.03;;;21.60;99.90;;;;;;5034091;28;20040;-83
2021/06/25 09:08:29;;;;;;;4.35;4.00;;;21.60;99.90;;;;;;5035400;28;20037;-83
2021/06/25 09:11:00;;;;;;;4.40;3.97;;;21.50;99.90;;;;;;5035116;28;20021;-83
2021/06/25 09:13:34;;;;;;;4.57;4.18;;;21.80;99.90;;;;;;5037744;28;20124;-83
2021/06/25 09:16:01;;;;;;;4.43;4.07;;;22.50;99.90;;;;;;5039422;28;20108;-83
2021/06/25 09:18:27;;;;;;;4.38;4.00;;;23.10;99.90;;;;;;5034955;28;20029;-83
2021/06/25 09:20:53;;;;;;;4.10;3.72;;;23.30;99.90;;;;;;5035317;28;20029;-83
2021/06/25 09:23:36;;;;;;;5.63;3.72;;;23.20;99.90;;;;;;5050237;28;20041;-83
2021/06/25 09:26:10;;;;;;;3.78;3.33;;;23.00;99.90;;;;;;5046554;28;20022;-83
2021/06/25 09:28:44;;;;;;;4.90;3.35;;;22.90;99.90;;;;;;5034808;28;20033;-83
2021/06/25 09:31:22;;;;;;;3.40;3.10;;;22.70;99.90;;;;;;5035060;28;20025;-82
2021/06/25 09:33:56;;;;;;;4.65;3.20;;;22.70;99.90;;;;;;5033945;28;20091;-82
2021/06/25 09:36:26;;;;;;;9.13;4.47;;;22.40;99.90;;;;;;5034789;28;20021;-82
2021/06/25 09:39:14;;;;;;;3.58;3.28;;;22.60;99.90;;;;;;5034642;28;20029;-82
2021/06/25 09:41:45;;;;;;;4.13;3.78;;;22.20;99.90;;;;;;5034807;28;20043;-82
2021/06/25 09:44:16;;;;;;;3.40;3.10;;;22.20;99.90;;;;;;5034811;28;20032;-82
2021/06/25 09:46:44;;;;;;;2.97;2.75;;;22.20;99.90;;;;;;5034816;28;20532;-82
2021/06/25 09:49:15;;;;;;;3.75;3.30;;;22.20;99.90;;;;;;5034708;28;20105;-82
2021/06/25 09:52:02;;;;;;;3.08;2.85;;;22.50;99.90;;;;;;5033309;28;20029;-82
2021/06/25 09:54:29;;;;;;;3.55;3.05;;;22.80;99.90;;;;;;5034051;28;20028;-82
2021/06/25 09:57:09;;;;;;;4.30;2.80;;;22.80;99.90;;;;;;5033331;28;20473;-82
2021/06/25 10:02:21;;;;;;;4.15;3.38;;;23.30;99.90;;;;;;5034528;28;20377;-82
2021/06/25 10:05:09;;;;;;;2.90;2.70;;;22.30;99.90;;;;;;5031869;28;20087;-82
2021/06/25 10:07:35;;;;;;;2.95;2.75;;;22.20;99.90;;;;;;5041165;28;20060;-82
2021/06/25 10:10:07;;;;;;;4.53;2.90;;;23.00;99.90;;;;;;5048128;28;20036;-82
2021/06/25 10:12:37;;;;;;;3.10;2.90;;;23.80;99.90;;;;;;5038352;28;20107;-83
2021/06/25 10:15:04;;;;;;;3.03;2.50;;;24.00;99.90;;;;;;5041779;28;20508;-83
2021/06/25 10:17:31;;;;;;;2.55;2.35;;;23.90;99.90;;;;;;5040734;28;20404;-82
2021/06/25 10:20:04;;;;;;;4.25;2.70;;;24.00;99.90;;;;;;5038758;28;20540;-82
2021/06/25 10:22:30;;;;;;;5.95;2.50;;;25.00;99.90;;;;;;5045894;28;20115;-82
2021/06/25 10:24:57;;;;;;;2.75;2.38;;;25.70;99.90;;;;;;5044608;28;20036;-82
2021/06/25 10:27:23;;;;;;;3.42;2.78;;;26.70;99.90;;;;;;5048505;28;20032;-82
2021/06/25 10:29:50;;;;;;;2.95;2.78;;;30.50;99.90;;;;;;5048722;28;20029;-82
2021/06/25 10:32:18;;;;;;;2.60;2.40;;;33.00;99.60;;;;;;5047811;28;20028;-82
2021/06/25 10:34:45;;;;;;;2.90;2.70;;;33.90;88.00;;;;;;5049620;28;20025;-82
2021/06/25 10:37:20;;;;;;;3.10;2.80;;;33.50;88.60;;;;;;5047169;28;20024;-82
2021/06/25 10:39:47;;;;;;;2.95;2.75;;;34.40;86.40;;;;;;5041754;28;20033;-82
2021/06/25 10:42:13;;;;;;;3.25;2.70;;;36.00;74.60;;;;;;5046012;28;20017;-83
2021/06/25 10:44:54;;;;;;;2.33;2.22;;;34.40;69.80;;;;;;5049033;28;20035;-83
2021/06/25 10:47:25;;;;;;;2.38;2.28;;;34.30;80.30;;;;;;5045663;28;20014;-83
2021/06/25 10:50:04;;;;;;;2.85;2.65;;;30.50;89.40;;;;;;5051311;28;20075;-83
2021/06/25 10:52:35;;;;;;;2.97;2.67;;;33.70;85.80;;;;;;5047124;28;20028;-83
2021/06/25 10:55:17;;;;;;;2.35;2.25;;;35.30;81.80;;;;;;5049412;28;20020;-83
2021/06/25 10:57:49;;;;;;;2.90;2.67;;;33.70;67.70;;;;;;5041849;28;20021;-83
2021/06/25 11:00:38;;;;;;;2.80;2.60;;;35.10;64.60;;;;;;5042531;28;20025;-83
2021/06/25 11:03:05;;;;;;;2.58;2.42;;;36.20;59.10;;;;;;5044425;28;20457;-83
2021/06/25 11:05:32;;;;;;;2.70;2.50;;;35.70;55.00;;;;;;5042219;28;20052;-83
2021/06/25 11:08:18;;;;;;;2.35;2.25;;;36.30;56.10;;;;;;5044221;28;20021;-83
2021/06/25 11:10:55;;;;;;;2.83;2.63;;;35.60;56.70;;;;;;5049879;28;20029;-83
2021/06/25 11:13:23;;;;;;;2.55;2.35;;;36.40;63.90;;;;;;5045882;28;20064;-83
2021/06/25 11:15:52;;;;;;;7.68;3.40;;;35.30;66.30;;;;;;5042895;28;20024;-83
2021/06/25 11:18:26;;;;;;;3.42;2.65;;;35.80;63.60;;;;;;5036505;28;20108;-82
2021/06/25 11:21:08;;;;;;;3.33;2.70;;;37.20;60.90;;;;;;5043526;28;20501;-83
2021/06/25 11:23:40;;;;;;;3.33;3.13;;;39.10;56.00;;;;;;5035867;28;20036;-83
2021/06/25 11:26:13;;;;;;;6.88;2.80;;;39.10;43.10;;;;;;5047812;28;20036;-83
2021/06/25 11:28:43;;;;;;;3.67;2.65;;;37.50;45.00;;;;;;5045312;28;20032;-83
2021/06/25 11:31:19;;;;;;;2.80;2.58;;;38.30;46.60;;;;;;5048177;28;20037;-83
2021/06/25 11:33:48;;;;;;;3.00;2.80;;;38.90;50.80;;;;;;5043496;28;20072;-83
2021/06/25 11:36:14;;;;;;;2.67;2.50;;;38.20;44.60;;;;;;5049797;28;20078;-83
2021/06/25 11:39:04;;;;;;;2.60;2.40;;;39.60;44.00;;;;;;5047986;28;20064;-83
2021/06/25 11:41:36;;;;;;;3.03;2.78;;;39.40;35.80;;;;;;5036524;28;20993;-83
2021/06/25 11:44:12;;;;;;;3.03;2.65;;;39.20;32.00;;;;;;5034096;28;20475;-83
2021/06/25 11:46:51;;;;;;;2.88;2.67;;;38.60;28.70;;;;;;5048496;28;20026;-84
2021/06/25 11:49:18;;;;;;;3.67;3.38;;;39.10;32.30;;;;;;5048943;28;20021;-83
2021/06/25 11:51:45;;;;;;;3.38;2.80;;;39.10;34.10;;;;;;5042742;28;20515;-80
2021/06/25 11:54:12;;;;;;;3.78;2.90;;;39.40;34.70;;;;;;5042454;28;20116;-83
2021/06/25 11:56:44;;;;;;;4.15;2.70;;;40.10;33.40;;;;;;5040090;28;20026;-82
2021/06/25 11:59:13;;;;;;;2.90;2.70;;;40.20;34.60;;;;;;5045765;28;20073;-82
2021/06/25 12:01:53;;;;;;;;;;;40.40;29.50;;;;;;5044925;28;20032;-82
2021/06/25 12:04:43;;;;;;;3.20;3.00;;;40.40;25.20;;;;;;5048634;28;19913;-82
2021/06/25 12:07:14;;;;;;;2.88;2.67;;;40.30;29.50;;;;;;5046879;28;20033;-82
2021/06/25 12:09:49;;;;;;;2.58;2.38;;;39.80;29.00;;;;;;5043354;28;20106;-81
2021/06/25 12:12:24;;;;;;;3.17;2.97;;;39.70;28.50;;;;;;5039484;28;20045;-81
2021/06/25 12:14:58;;;;;;;2.80;2.60;;;39.70;25.00;;;;;;5039545;28;20505;-81
2021/06/25 12:17:39;;;;;;;2.80;2.70;;;38.90;28.30;;;;;;5038385;28;20112;-81
2021/06/25 12:20:23;;;;;;;2.78;2.55;;;39.30;24.90;;;;;;5032241;28;20513;-81
2021/06/25 12:23:03;;;;;;;3.35;3.05;;;37.90;23.20;;;;;;5032813;28;20040;-81
2021/06/25 12:25:32;;;;;;;3.13;2.92;;;38.00;32.20;;;;;;5032564;28;20033;-81
2021/06/25 12:27:58;;;;;;;3.22;2.33;;;35.90;29.90;;;;;;5032294;28;20039;-81
2021/06/25 12:30:24;;;;;;;2.55;2.33;;;33.50;36.70;;;;;;5032329;28;20436;-82
2021/06/25 12:33:05;;;;;;;3.33;3.13;;;33.70;41.10;;;;;;5031801;28;20076;-81
2021/06/25 12:35:39;;;;;;;3.30;2.90;;;36.20;33.40;;;;;;5032062;28;20029;-81
2021/06/25 12:38:11;;;;;;;3.38;2.63;;;37.00;29.20;;;;;;5030806;28;20028;-81
2021/06/25 12:40:39;;;;;;;3.50;3.30;;;38.40;24.10;;;;;;5032078;28;20037;-81
2021/06/25 12:43:05;;;;;;;2.80;2.60;;;39.20;21.20;;;;;;5031981;28;20519;-81
2021/06/25 12:45:45;;;;;;;2.72;2.63;;;39.50;25.20;;;;;;5032135;28;20022;-81
2021/06/25 12:48:14;;;;;;;2.50;2.38;;;40.30;24.40;;;;;;5031580;28;20033;-81
2021/06/25 12:50:41;;;;;;;3.20;2.92;;;40.10;23.80;;;;;;5032090;28;20022;-80
2021/06/25 12:53:35;;;;;;;2.83;2.60;;;39.00;18.00;;;;;;5030776;28;20397;-81
2021/06/25 12:56:12;;;;;;;2.83;2.72;;;40.80;22.30;;;;;;5030866;28;20047;-80
2021/06/25 12:58:39;;;;;;;3.50;2.78;;;40.50;27.30;;;;;;5032034;28;20021;-80
2021/06/25 13:01:06;;;;;;;2.63;2.53;;;41.20;21.60;;;;;;5031949;28;20033;-80
2021/06/25 13:03:33;;;;;;;3.28;2.97;;;39.90;15.40;;;;;;5031633;28;20032;-80
2021/06/25 13:06:00;;;;;;;3.08;2.88;;;38.90;19.40;;;;;;5031938;28;20083;-80